Saturday, August 23, 2014
19:56 UTC
  |  Log In   |  Register Free
Airport Search:

Smithville Municipal Airport
(0A3)

Smithville Municipal Airport Diagram
No Airport Diagram Available

FAA data valid effective July 24, 2014 until September 18, 2014 (unless otherwise noted).

 
 
 
 
 
 
 
 
 
 
 
 
 
 

Current Aviation Weather for Smithville Municipal Airport (0A3)

The most recent METAR observation for KSRB was updated at: 1855 UTC
METAR Summary (Translated METAR)
KSRB
281855Z AUTO 35006KT 10SM FEW050 BKN060 27/18 A3000 RMK
KCSV
(22.5 nm SE from KSRB)
281753Z AUTO 32010G14KT 10SM BKN036 BKN044 24/15 A3003 RMK AO2 RAEMM SLP151 P0000 60000 T02390150 10256 20189 58000
TAF Summary (Translated TAF)
KCSV
(22.5 nm SE from KSRB)
231845Z 2319/2418 34006KT P6SM VCTS SCT030CB SCT060 BKN200 FM240300 02002KT P6SM SCT100 BKN200 FM240500 00000KT 4SM BR SCT100 BKN200 FM240800 00000KT 2SM BR SCT200 FM241300 03003KT P6SM SCT120 BKN200 FM241500 11004KT P6SM VCTS SCT030CB BKN100 BKN200
  Airport Weather Conditions for 0A3

Current weather conditions are
not available for 0A3


The nearest NOAA weather station
is at SRB, (14.2 nm NE from 0A3)
  
 Current Weather at SRB
91° F
Partly Cloudy
North winds at 5.8 mph
SRB NOAA Radar

Pressure: 30.02 in
Humidity: 59%
Wind: North at 5.8 MPH (5 KT)
Dew Point: 75.2°F
Visibility: 10.00 mi


Airport Weather Forecast for 0A3

Translated METAR and TAF for KSRB
Translated METAR for KSRB (1949 UTC 23 August 2014)
found at http://aviationweather.gov/adds/metars/
 
METAR text: KSRB 231935Z AUTO 35005KT 10SM CLR 33/24 A3000 RMK
Conditions at: KSRB (SPARTA , TN, US) observed 1935 UTC 23 August 2014
Temperature: 33.0°C (91°F)
Dewpoint: 24.0°C (75°F) [RH = 59%]
Pressure (altimeter): 30.00 inches Hg (1016.0 mb)
Winds: from the N (350 degrees) at 6 MPH (5 knots; 2.6 m/s)
Visibility: 10 or more miles (16+ km)
Ceiling: at least 12,000 feet AGL
Clouds: sky clear below 12,000 feet AGL
Weather: no significant weather observed at this time
Translated TAF for KSRB

There is no translated TAF available for this airport

Find All Airport Services Find A Hotel Find A Rental Car Find A Golf Course Find A Restaurant $100 Hamburger



FBO's on the Field
FBO Company Facility Photos Services Transportation Aviation Fuel Prices: Prices include tax
Catering Weather Repair Courtesy Rental Type 100LL JetA JetA+ MOGAS 8087
 
Smithville Municipal Airport

This FBO has not yet been rated
FS:Shell
Last Updated: Aug-07
Login to update fuel prices
SS:
Contact Smithville Municipal AirportMore FBO Information
 
Add another FBO Facility Photos Catering Weather Repair Courtesy Rental Type 100LL JetA JetA+ MOGAS 8087
Services Transportation Aviation Fuel Prices: Prices include tax


GlobalAir.com Airport Resource Center model-print
model-print
model-print
model-print